Time;durP1;ratioP1;P1;durP2;ratioP2;P2;SDS_P1;SDS_P2;PMS_P1;PMS_P2;Temp;Humidity;BMP_temperature;BMP_pressure;BME280_temperature;BME280_humidity;BME280_pressure;Samples;Min_cycle;Max_cycle;Signal;HPM_P1;HPM_P2
2022/01/07 00:00:47;;;;;;;19.02;7.03;;;3.70;99.90;;;;;;5043404;28;20144;-79
2022/01/07 00:03:14;;;;;;;16.77;6.70;;;3.70;99.90;;;;;;5027261;28;20049;-78
2022/01/07 00:05:40;;;;;;;20.10;7.55;;;3.70;99.90;;;;;;5028648;28;20488;-78
2022/01/07 00:08:06;;;;;;;16.15;6.15;;;3.70;99.90;;;;;;5028164;28;20048;-78
2022/01/07 00:10:33;;;;;;;17.90;6.60;;;3.70;99.90;;;;;;5043257;28;20527;-78
2022/01/07 00:12:59;;;;;;;14.35;6.07;;;3.70;99.90;;;;;;5023133;28;20060;-78
2022/01/07 00:15:25;;;;;;;12.55;5.95;;;3.70;99.90;;;;;;5024570;28;20046;-78
2022/01/07 00:17:51;;;;;;;19.92;6.95;;;3.70;99.90;;;;;;5028139;28;20053;-78
2022/01/07 00:20:18;;;;;;;18.58;6.70;;;3.70;99.90;;;;;;5029358;28;20083;-78
2022/01/07 00:22:46;;;;;;;14.23;6.57;;;3.60;99.90;;;;;;5028600;28;20053;-79
2022/01/07 00:25:13;;;;;;;19.17;6.93;;;3.70;99.90;;;;;;5026637;28;20076;-78
2022/01/07 00:27:39;;;;;;;14.20;5.13;;;3.70;99.90;;;;;;5019839;28;20497;-78
2022/01/07 00:30:07;;;;;;;17.45;6.22;;;3.70;99.90;;;;;;5017839;28;20048;-79
2022/01/07 00:32:33;;;;;;;16.13;6.05;;;3.70;99.90;;;;;;5029780;28;20146;-78
2022/01/07 00:34:59;;;;;;;13.98;5.20;;;3.70;99.90;;;;;;5026289;28;20048;-79
2022/01/07 00:37:24;;;;;;;17.35;5.53;;;3.70;99.90;;;;;;5021176;28;20037;-78
2022/01/07 00:39:50;;;;;;;15.52;5.32;;;3.70;99.90;;;;;;5027989;28;20052;-78
2022/01/07 00:42:16;;;;;;;14.15;6.13;;;3.70;99.90;;;;;;5027174;28;20057;-78
2022/01/07 00:44:41;;;;;;;14.45;5.00;;;3.70;99.90;;;;;;5031009;28;20052;-78
2022/01/07 00:47:07;;;;;;;16.40;6.78;;;3.70;99.90;;;;;;5031765;28;20051;-78
2022/01/07 00:49:33;;;;;;;15.38;6.90;;;3.70;99.90;;;;;;5030686;28;20785;-78
2022/01/07 00:52:01;;;;;;;20.63;5.90;;;3.70;99.90;;;;;;5030560;28;20042;-78
2022/01/07 00:54:27;;;;;;;13.20;5.65;;;3.70;99.90;;;;;;5031019;28;20056;-78
2022/01/07 00:56:52;;;;;;;16.45;6.28;;;3.60;99.90;;;;;;5029932;28;20088;-78
2022/01/07 00:59:18;;;;;;;19.85;6.63;;;3.60;99.90;;;;;;5041756;28;20042;-78
2022/01/07 01:01:44;;;;;;;16.42;5.45;;;3.60;99.90;;;;;;5025257;28;20096;-78
2022/01/07 01:04:10;;;;;;;19.45;5.72;;;3.60;99.90;;;;;;5042078;28;20052;-78
2022/01/07 01:06:36;;;;;;;16.20;6.57;;;3.50;99.90;;;;;;5027849;28;20042;-78
2022/01/07 01:09:02;;;;;;;13.88;5.38;;;3.50;99.90;;;;;;5030796;28;20080;-78
2022/01/07 01:11:27;;;;;;;16.13;5.57;;;3.50;99.90;;;;;;5021786;28;20050;-78
2022/01/07 01:13:53;;;;;;;14.40;6.20;;;3.40;99.90;;;;;;5020494;28;20103;-78
2022/01/07 01:16:19;;;;;;;12.75;6.07;;;3.40;99.90;;;;;;5026427;28;20048;-78
2022/01/07 01:18:44;;;;;;;17.00;6.68;;;3.30;99.90;;;;;;5031112;28;20642;-78
2022/01/07 01:21:10;;;;;;;18.52;7.13;;;3.30;99.90;;;;;;5030505;28;20049;-78
2022/01/07 01:23:35;;;;;;;18.02;6.55;;;3.30;99.90;;;;;;5027500;28;20060;-78
2022/01/07 01:26:01;;;;;;;20.77;7.35;;;3.20;99.90;;;;;;5028220;28;20399;-78
2022/01/07 01:28:27;;;;;;;20.88;5.80;;;3.20;99.90;;;;;;5030373;28;20053;-78
2022/01/07 01:30:52;;;;;;;16.35;5.90;;;3.20;99.90;;;;;;5025005;28;20034;-78
2022/01/07 01:33:18;;;;;;;14.02;6.13;;;3.20;99.90;;;;;;5026170;28;20052;-78
2022/01/07 01:35:44;;;;;;;17.80;6.53;;;3.20;99.90;;;;;;5023137;28;20045;-78
2022/01/07 01:38:10;;;;;;;19.13;6.63;;;3.10;99.90;;;;;;5021372;28;20459;-78
2022/01/07 01:40:35;;;;;;;18.10;6.72;;;3.10;99.90;;;;;;5028866;28;20053;-78
2022/01/07 01:43:02;;;;;;;15.10;5.85;;;3.10;99.90;;;;;;5029561;28;20905;-78
2022/01/07 01:45:28;;;;;;;15.23;6.45;;;3.00;99.90;;;;;;5022859;28;20111;-78
2022/01/07 01:47:55;;;;;;;17.17;5.90;;;3.10;99.90;;;;;;5026330;28;20037;-78
2022/01/07 01:50:21;;;;;;;21.10;7.43;;;3.00;99.90;;;;;;5030773;28;20061;-78
2022/01/07 01:52:52;;;;;;;35.35;7.25;;;3.00;99.90;;;;;;5028047;28;20485;-78
2022/01/07 01:55:19;;;;;;;18.48;7.20;;;3.00;99.90;;;;;;5027313;28;20053;-78
2022/01/07 01:57:46;;;;;;;18.05;6.80;;;3.00;99.90;;;;;;5026743;28;20045;-78
2022/01/07 02:00:12;;;;;;;18.15;7.32;;;2.90;99.90;;;;;;5022915;28;20473;-78
2022/01/07 02:02:38;;;;;;;18.63;7.10;;;2.90;99.90;;;;;;5027735;28;20052;-78
2022/01/07 02:05:04;;;;;;;17.60;8.05;;;2.90;99.90;;;;;;5027990;28;20401;-78
2022/01/07 02:07:34;;;;;;;16.25;6.85;;;2.90;99.90;;;;;;5026163;28;20037;-78
2022/01/07 02:10:02;;;;;;;19.45;7.63;;;2.90;99.90;;;;;;5029109;28;20049;-78
2022/01/07 02:12:28;;;;;;;15.10;6.90;;;2.90;99.90;;;;;;5021711;28;20041;-78
2022/01/07 02:14:57;;;;;;;17.67;7.53;;;2.80;99.90;;;;;;5029108;28;20053;-78
2022/01/07 02:17:25;;;;;;;18.80;8.80;;;2.80;99.90;;;;;;5025406;28;20049;-78
2022/01/07 02:19:51;;;;;;;17.67;7.60;;;3.00;99.90;;;;;;5026211;28;20113;-78
2022/01/07 02:22:17;;;;;;;15.70;7.22;;;2.80;99.90;;;;;;5022643;28;20045;-78
2022/01/07 02:24:48;;;;;;;18.00;7.63;;;2.80;99.90;;;;;;5018424;28;20037;-78
2022/01/07 02:27:14;;;;;;;17.95;8.52;;;2.80;99.90;;;;;;5028090;28;20556;-78
2022/01/07 02:29:42;;;;;;;15.52;8.00;;;2.80;99.90;;;;;;5026736;28;20045;-78
2022/01/07 02:32:08;;;;;;;16.40;8.75;;;2.70;99.90;;;;;;5024441;28;20049;-78
2022/01/07 02:34:33;;;;;;;17.92;8.32;;;2.70;99.90;;;;;;5027062;28;20041;-78
2022/01/07 02:36:59;;;;;;;18.25;8.35;;;2.70;99.90;;;;;;5023405;28;20049;-78
2022/01/07 02:39:25;;;;;;;20.88;9.15;;;2.70;99.90;;;;;;5025050;28;20060;-78
2022/01/07 02:41:50;;;;;;;15.75;8.02;;;2.70;99.90;;;;;;5025335;28;20120;-78
2022/01/07 02:44:16;;;;;;;16.27;8.85;;;2.70;99.90;;;;;;5028416;28;20502;-78
2022/01/07 02:46:42;;;;;;;17.42;9.13;;;2.70;99.90;;;;;;5027408;28;20057;-78
2022/01/07 02:49:12;;;;;;;14.63;8.93;;;2.70;99.90;;;;;;5044297;28;20798;-78
2022/01/07 02:51:38;;;;;;;16.88;9.35;;;2.60;99.90;;;;;;5021805;28;20446;-78
2022/01/07 02:54:05;;;;;;;18.75;9.68;;;2.60;99.90;;;;;;5025232;28;20077;-78
2022/01/07 02:56:30;;;;;;;24.88;11.45;;;2.60;99.90;;;;;;5032247;28;20038;-78
2022/01/07 02:58:56;;;;;;;20.67;8.43;;;2.60;99.90;;;;;;5029292;28;20041;-78
2022/01/07 03:01:22;;;;;;;19.27;10.00;;;2.60;99.90;;;;;;5025263;28;20041;-78
2022/01/07 03:03:47;;;;;;;18.25;8.88;;;2.60;99.90;;;;;;5027844;28;20076;-78
2022/01/07 03:06:13;;;;;;;23.58;10.77;;;2.70;99.90;;;;;;5027612;28;20103;-78
2022/01/07 03:08:38;;;;;;;20.25;9.60;;;3.60;99.90;;;;;;5023607;28;20054;-78
2022/01/07 03:11:04;;;;;;;23.90;10.32;;;2.70;99.90;;;;;;5015173;28;20038;-79
2022/01/07 03:13:29;;;;;;;17.70;9.38;;;2.60;99.90;;;;;;5028260;28;20805;-78
2022/01/07 03:15:55;;;;;;;20.08;9.35;;;2.60;99.90;;;;;;5022361;28;20095;-78
2022/01/07 03:18:20;;;;;;;15.27;9.85;;;2.70;99.90;;;;;;5019956;28;20068;-78
2022/01/07 03:20:46;;;;;;;21.95;9.63;;;2.70;99.90;;;;;;5027915;28;20072;-79
2022/01/07 03:23:12;;;;;;;17.05;10.60;;;2.70;99.90;;;;;;5027515;28;20191;-79
2022/01/07 03:25:44;;;;;;;16.67;9.23;;;2.70;99.90;;;;;;5029690;28;20052;-78
2022/01/07 03:28:10;;;;;;;22.25;9.55;;;2.70;99.90;;;;;;5050293;28;20044;-78
2022/01/07 03:30:36;;;;;;;19.15;10.05;;;2.70;99.90;;;;;;5033449;28;20520;-78
2022/01/07 03:33:02;;;;;;;21.52;10.75;;;2.70;99.90;;;;;;5039263;28;20132;-78
2022/01/07 03:35:28;;;;;;;17.60;9.90;;;2.70;99.90;;;;;;5038299;28;20503;-78
2022/01/07 03:37:54;;;;;;;19.90;11.23;;;2.70;99.90;;;;;;5028983;28;20081;-78
2022/01/07 03:40:20;;;;;;;15.02;9.43;;;2.80;99.90;;;;;;5043942;28;20151;-79
2022/01/07 03:42:48;;;;;;;19.02;11.23;;;2.80;99.90;;;;;;5027509;28;20050;-78
2022/01/07 03:45:14;;;;;;;18.55;10.82;;;2.80;99.90;;;;;;5028141;28;20045;-78
2022/01/07 03:47:40;;;;;;;19.42;10.45;;;2.80;99.90;;;;;;5029225;28;20108;-78
2022/01/07 03:50:09;;;;;;;16.90;9.15;;;2.80;99.90;;;;;;5025847;28;20520;-78
2022/01/07 03:52:35;;;;;;;22.80;12.02;;;2.80;99.90;;;;;;5039663;28;20068;-78
2022/01/07 03:55:02;;;;;;;17.55;9.80;;;2.80;99.90;;;;;;5044394;28;20805;-78
2022/01/07 03:57:28;;;;;;;15.68;10.07;;;2.80;99.90;;;;;;5028644;28;20049;-78
2022/01/07 03:59:53;;;;;;;19.38;11.00;;;2.80;99.90;;;;;;5043086;28;20045;-78
2022/01/07 04:02:19;;;;;;;17.83;11.70;;;2.80;99.90;;;;;;5037519;28;20054;-78
2022/01/07 04:04:45;;;;;;;19.77;11.40;;;2.80;99.90;;;;;;5027074;28;20054;-78
2022/01/07 04:07:11;;;;;;;22.23;11.68;;;2.80;99.90;;;;;;5027491;28;20054;-78
2022/01/07 04:09:37;;;;;;;21.45;12.38;;;2.80;99.90;;;;;;5029103;28;20416;-78
2022/01/07 04:12:03;;;;;;;20.10;10.45;;;2.80;99.90;;;;;;5039429;28;20045;-78
2022/01/07 04:14:29;;;;;;;19.50;11.88;;;2.80;99.90;;;;;;5026624;28;20046;-78
2022/01/07 04:16:55;;;;;;;25.23;12.95;;;2.80;99.90;;;;;;5027607;28;20063;-78
2022/01/07 04:19:21;;;;;;;22.42;11.80;;;2.80;99.90;;;;;;5027306;28;20042;-78
2022/01/07 04:21:49;;;;;;;17.20;11.07;;;2.80;99.90;;;;;;5027509;28;20485;-78
2022/01/07 04:24:14;;;;;;;20.27;11.13;;;2.80;99.90;;;;;;5028536;28;20078;-78
2022/01/07 04:26:40;;;;;;;16.67;11.27;;;2.90;99.90;;;;;;5027502;28;20123;-79
2022/01/07 04:29:05;;;;;;;19.23;10.77;;;2.90;99.90;;;;;;5039640;28;20054;-78
2022/01/07 04:31:31;;;;;;;18.90;11.57;;;2.90;99.90;;;;;;5029688;28;20465;-78
2022/01/07 04:33:57;;;;;;;22.25;10.75;;;2.90;99.90;;;;;;5027441;28;20453;-79
2022/01/07 04:36:22;;;;;;;17.95;10.07;;;2.90;99.90;;;;;;5026782;28;20045;-78
2022/01/07 04:38:48;;;;;;;16.90;9.95;;;2.90;99.90;;;;;;5042468;28;20366;-78
2022/01/07 04:41:13;;;;;;;15.32;10.35;;;2.90;99.90;;;;;;5028860;28;20064;-78
2022/01/07 04:43:39;;;;;;;16.98;10.82;;;2.90;99.90;;;;;;5027445;28;20053;-78
2022/01/07 04:46:05;;;;;;;16.33;11.25;;;2.90;99.90;;;;;;5043507;28;20038;-79
2022/01/07 04:48:31;;;;;;;18.23;10.95;;;3.00;99.90;;;;;;5043155;28;20068;-78
2022/01/07 04:50:57;;;;;;;17.83;10.35;;;2.90;99.90;;;;;;5027048;28;20076;-79
2022/01/07 04:53:22;;;;;;;16.63;10.38;;;2.90;99.90;;;;;;5027795;28;20084;-78
2022/01/07 04:55:48;;;;;;;19.88;10.60;;;2.90;99.90;;;;;;5044343;28;20083;-78
2022/01/07 04:58:14;;;;;;;18.20;10.38;;;2.90;99.90;;;;;;5028451;28;20033;-79
2022/01/07 05:00:42;;;;;;;16.77;8.85;;;2.90;99.90;;;;;;5026276;28;20453;-79
2022/01/07 05:03:08;;;;;;;15.15;11.30;;;3.00;99.90;;;;;;5040469;28;20046;-79
2022/01/07 05:05:34;;;;;;;20.33;10.52;;;3.00;99.90;;;;;;5027271;28;20046;-79
2022/01/07 05:08:00;;;;;;;18.10;10.88;;;3.00;99.90;;;;;;5027153;28;20064;-79
2022/01/07 05:10:26;;;;;;;15.38;9.95;;;3.00;99.90;;;;;;5026779;28;21653;-78
2022/01/07 05:12:52;;;;;;;17.58;10.43;;;3.00;99.90;;;;;;5022792;28;20045;-79
2022/01/07 05:15:18;;;;;;;17.38;9.75;;;3.00;99.90;;;;;;5026786;28;20528;-78
2022/01/07 05:17:46;;;;;;;17.88;10.45;;;3.00;99.90;;;;;;5025815;28;20050;-78
2022/01/07 05:20:13;;;;;;;17.27;10.73;;;3.00;99.90;;;;;;5025930;28;20056;-79
2022/01/07 05:22:39;;;;;;;15.27;9.80;;;3.10;99.90;;;;;;5026757;28;20054;-79
2022/01/07 05:25:06;;;;;;;13.95;8.52;;;3.10;99.90;;;;;;5027659;28;20049;-78
2022/01/07 05:27:32;;;;;;;16.08;9.13;;;3.10;99.90;;;;;;5028144;28;20072;-79
2022/01/07 05:29:57;;;;;;;14.68;9.07;;;3.10;99.90;;;;;;5028978;28;20053;-79
2022/01/07 05:32:23;;;;;;;15.52;10.15;;;3.10;99.90;;;;;;5029710;28;20104;-79
2022/01/07 05:34:49;;;;;;;18.10;9.25;;;3.10;99.90;;;;;;5029846;28;20037;-79
2022/01/07 05:37:14;;;;;;;19.40;9.10;;;3.10;99.90;;;;;;5039209;28;20392;-79
2022/01/07 05:39:40;;;;;;;15.32;9.38;;;3.10;99.90;;;;;;5030549;28;20048;-79
2022/01/07 05:42:06;;;;;;;18.45;9.82;;;3.10;99.90;;;;;;5031978;28;20424;-79
2022/01/07 05:44:32;;;;;;;14.55;8.02;;;3.10;99.90;;;;;;5030005;28;20156;-79
2022/01/07 05:46:57;;;;;;;15.18;8.85;;;3.10;99.90;;;;;;5030386;28;20481;-79
2022/01/07 05:49:23;;;;;;;14.90;9.18;;;3.10;99.90;;;;;;5030023;28;20061;-79
2022/01/07 05:51:49;;;;;;;17.38;8.65;;;3.10;99.90;;;;;;5030404;28;20476;-79
2022/01/07 05:54:14;;;;;;;13.13;8.55;;;3.10;99.90;;;;;;5029449;28;20148;-79
2022/01/07 05:56:40;;;;;;;16.10;9.68;;;3.20;99.90;;;;;;5028876;28;20040;-79
2022/01/07 05:59:05;;;;;;;15.57;10.05;;;3.20;99.90;;;;;;5027678;28;20053;-79
2022/01/07 06:01:31;;;;;;;16.88;9.20;;;3.20;99.90;;;;;;5030004;28;20041;-79
2022/01/07 06:03:57;;;;;;;13.82;8.45;;;3.20;99.90;;;;;;5028309;28;20048;-79
2022/01/07 06:06:23;;;;;;;15.18;9.60;;;3.20;99.90;;;;;;5023843;28;20048;-80
2022/01/07 06:08:49;;;;;;;14.55;9.15;;;3.20;99.90;;;;;;5025811;28;20464;-79
2022/01/07 06:11:14;;;;;;;12.73;8.52;;;3.20;99.90;;;;;;5026220;28;20156;-79
2022/01/07 06:13:40;;;;;;;14.43;9.20;;;3.20;99.90;;;;;;5033416;28;20061;-80
2022/01/07 06:16:07;;;;;;;16.65;9.32;;;3.20;99.90;;;;;;5029003;28;20156;-80
2022/01/07 06:18:32;;;;;;;14.88;9.30;;;3.20;99.90;;;;;;5045495;28;20655;-79
2022/01/07 06:20:58;;;;;;;14.77;9.00;;;3.20;99.90;;;;;;5028520;28;20180;-80
2022/01/07 06:23:24;;;;;;;14.95;8.95;;;3.20;99.90;;;;;;5027317;28;20092;-79
2022/01/07 06:25:50;;;;;;;16.50;9.45;;;3.20;99.90;;;;;;5030431;28;20188;-79
2022/01/07 06:28:16;;;;;;;14.50;9.30;;;3.20;99.90;;;;;;5030680;28;20533;-80
2022/01/07 06:30:42;;;;;;;16.17;9.55;;;3.20;99.90;;;;;;5029931;28;20056;-80
2022/01/07 06:33:08;;;;;;;13.82;9.27;;;3.20;99.90;;;;;;5031415;28;20049;-78
2022/01/07 06:35:34;;;;;;;14.65;9.13;;;3.00;99.90;;;;;;5046892;28;20033;-81
2022/01/07 06:37:59;;;;;;;16.25;9.70;;;3.20;99.90;;;;;;5030788;28;20128;-80
2022/01/07 06:40:25;;;;;;;17.10;9.50;;;3.20;99.90;;;;;;5030402;28;20520;-80
2022/01/07 06:42:51;;;;;;;19.33;8.60;;;3.20;99.90;;;;;;5038964;28;20038;-81
2022/01/07 06:45:17;;;;;;;17.00;9.60;;;3.20;99.90;;;;;;5028280;28;20073;-81
2022/01/07 06:47:43;;;;;;;15.38;9.70;;;3.30;99.90;;;;;;5030731;28;20413;-79
2022/01/07 06:50:08;;;;;;;17.23;10.18;;;3.20;99.90;;;;;;5029378;28;20042;-80
2022/01/07 06:52:34;;;;;;;16.30;9.43;;;3.20;99.90;;;;;;5044976;28;20115;-79
2022/01/07 06:55:00;;;;;;;15.25;9.88;;;3.20;99.90;;;;;;5029296;28;20128;-79
2022/01/07 06:57:25;;;;;;;14.90;10.07;;;4.10;99.90;;;;;;5029849;28;20103;-79
2022/01/07 06:59:51;;;;;;;14.38;9.85;;;3.20;99.90;;;;;;5031837;28;20052;-79
2022/01/07 07:02:17;;;;;;;17.13;10.10;;;3.30;99.90;;;;;;5030626;28;20136;-79
2022/01/07 07:04:44;;;;;;;16.15;9.50;;;3.30;99.90;;;;;;5029752;28;20065;-81
2022/01/07 07:07:10;;;;;;;17.55;9.95;;;3.30;99.90;;;;;;5029706;28;20045;-81
2022/01/07 07:09:36;;;;;;;14.90;8.60;;;3.30;99.90;;;;;;5029754;28;20124;-78
2022/01/07 07:12:02;;;;;;;17.80;9.48;;;3.30;99.90;;;;;;5025699;28;20045;-77
2022/01/07 07:14:28;;;;;;;16.05;9.88;;;3.30;99.90;;;;;;5029989;28;20517;-78
2022/01/07 07:16:53;;;;;;;14.57;9.13;;;4.00;99.90;;;;;;5027814;28;20041;-79
2022/01/07 07:19:21;;;;;;;15.98;10.25;;;3.40;99.90;;;;;;5028143;28;20059;-80
2022/01/07 07:21:46;;;;;;;16.08;9.98;;;4.30;99.90;;;;;;5030021;28;20054;-79
2022/01/07 07:24:12;;;;;;;16.42;9.43;;;3.40;99.90;;;;;;5028746;28;20040;-79
2022/01/07 07:26:38;;;;;;;16.60;9.63;;;3.40;99.90;;;;;;5030395;28;20488;-79
2022/01/07 07:29:04;;;;;;;16.35;9.82;;;3.40;99.90;;;;;;5029326;28;20049;-77
2022/01/07 07:31:31;;;;;;;21.23;10.75;;;3.40;99.90;;;;;;5030380;28;20045;-76
2022/01/07 07:34:18;;;;;;;21.27;10.70;;;3.40;99.90;;;;;;5029273;28;20033;-78
2022/01/07 07:36:44;;;;;;;18.98;10.40;;;3.40;99.90;;;;;;5029862;28;20045;-78
2022/01/07 07:39:11;;;;;;;17.23;10.35;;;3.50;99.90;;;;;;5027949;28;20489;-78
2022/01/07 07:41:39;;;;;;;17.85;10.70;;;3.60;99.90;;;;;;5028196;28;20052;-78
2022/01/07 07:44:06;;;;;;;17.85;10.85;;;3.50;99.90;;;;;;5026528;28;20124;-78
2022/01/07 07:46:33;;;;;;;22.08;10.98;;;3.70;99.90;;;;;;5017154;28;20056;-78
2022/01/07 07:49:04;;;;;;;18.25;10.95;;;4.10;99.90;;;;;;5030976;28;20048;-77
2022/01/07 07:51:30;;;;;;;18.15;11.65;;;3.50;99.90;;;;;;5026974;28;20120;-76
2022/01/07 07:53:57;;;;;;;20.85;12.20;;;3.60;99.90;;;;;;5027922;28;20045;-76
2022/01/07 07:56:23;;;;;;;19.17;11.93;;;3.60;99.90;;;;;;5022565;28;20057;-76
2022/01/07 07:58:49;;;;;;;16.45;11.38;;;3.60;99.90;;;;;;5022186;28;20040;-76
2022/01/07 08:01:17;;;;;;;19.88;11.75;;;3.50;99.90;;;;;;5013086;28;20128;-76
2022/01/07 08:03:44;;;;;;;22.05;12.25;;;3.60;99.90;;;;;;5014861;28;20411;-77
2022/01/07 08:06:09;;;;;;;20.33;13.60;;;3.60;99.90;;;;;;5017358;28;20042;-76
2022/01/07 08:08:36;;;;;;;19.40;12.77;;;3.60;99.90;;;;;;5015329;28;20091;-76
2022/01/07 08:11:05;;;;;;;24.35;13.88;;;3.60;99.90;;;;;;5012172;28;20029;-76
2022/01/07 08:13:31;;;;;;;22.65;13.43;;;3.70;99.90;;;;;;5010285;28;20045;-77
2022/01/07 08:16:04;;;;;;;21.55;13.32;;;3.70;99.90;;;;;;5015807;28;20386;-77
2022/01/07 08:18:33;;;;;;;25.17;13.83;;;3.80;99.90;;;;;;5016524;28;20038;-76
2022/01/07 08:21:10;;;;;;;22.80;14.13;;;3.70;99.90;;;;;;5017491;28;20037;-76
2022/01/07 08:23:39;;;;;;;22.02;13.32;;;3.70;99.90;;;;;;5008951;28;20070;-76
2022/01/07 08:26:08;;;;;;;24.90;14.20;;;3.70;99.90;;;;;;5014475;28;20159;-76
2022/01/07 08:28:45;;;;;;;28.38;15.25;;;3.80;99.90;;;;;;5016747;28;20088;-75
2022/01/07 08:36:25;;;;;;;30.08;15.88;;;3.80;99.90;;;;;;5017173;28;20060;-75
2022/01/07 08:38:52;;;;;;;27.85;14.55;;;3.70;99.90;;;;;;5015555;28;20060;-76
2022/01/07 08:41:19;;;;;;;29.38;15.88;;;3.90;99.90;;;;;;5016274;28;20054;-75
2022/01/07 08:43:44;;;;;;;34.40;17.38;;;3.90;99.90;;;;;;5010390;28;20136;-76
2022/01/07 08:46:10;;;;;;;27.33;16.52;;;3.90;99.90;;;;;;5013234;28;20055;-76
2022/01/07 08:48:37;;;;;;;33.20;16.52;;;4.60;99.90;;;;;;5014967;28;21079;-75
2022/01/07 08:51:04;;;;;;;27.85;16.77;;;4.00;99.90;;;;;;5016540;28;20041;-75
2022/01/07 08:53:30;;;;;;;26.00;14.88;;;4.00;99.90;;;;;;5010515;28;20542;-76
2022/01/07 08:55:56;;;;;;;33.60;17.08;;;4.00;99.90;;;;;;5015197;28;20041;-76
2022/01/07 08:58:22;;;;;;;28.83;16.80;;;4.10;99.90;;;;;;5016844;28;20091;-75
2022/01/07 09:00:48;;;;;;;34.17;17.88;;;4.10;99.90;;;;;;5015006;28;20045;-75
2022/01/07 09:03:13;;;;;;;31.42;16.42;;;4.10;99.90;;;;;;5012001;28;20054;-75
2022/01/07 09:05:39;;;;;;;34.42;17.15;;;4.10;99.90;;;;;;5012415;28;20038;-75
2022/01/07 09:08:12;;;;;;;35.47;18.00;;;4.20;99.90;;;;;;5017158;28;20549;-75
2022/01/07 09:10:39;;;;;;;29.73;17.40;;;4.20;99.90;;;;;;5019229;28;20493;-75
2022/01/07 09:13:05;;;;;;;33.38;17.95;;;4.20;99.90;;;;;;5013687;28;20064;-75
2022/01/07 09:15:31;;;;;;;40.63;20.65;;;4.20;99.90;;;;;;5012791;28;20061;-75
2022/01/07 09:17:57;;;;;;;31.60;18.52;;;4.30;99.90;;;;;;5021773;28;20085;-75
2022/01/07 09:20:23;;;;;;;35.17;17.73;;;4.30;99.90;;;;;;5019399;28;20045;-75
2022/01/07 09:22:49;;;;;;;31.33;17.30;;;4.30;99.90;;;;;;5018420;28;20057;-75
2022/01/07 09:25:15;;;;;;;33.95;17.63;;;4.40;99.90;;;;;;5013397;28;20100;-75
2022/01/07 09:27:41;;;;;;;40.13;19.38;;;4.40;99.90;;;;;;5019101;28;20041;-76
2022/01/07 09:30:08;;;;;;;36.78;18.80;;;4.40;99.90;;;;;;5018596;28;20037;-76
2022/01/07 09:32:34;;;;;;;32.25;17.02;;;4.50;99.90;;;;;;5018454;28;20041;-76
2022/01/07 09:35:00;;;;;;;35.65;18.35;;;4.40;99.90;;;;;;5012132;28;20038;-75
2022/01/07 09:37:26;;;;;;;33.55;17.02;;;4.50;99.90;;;;;;5020201;28;20048;-75
2022/01/07 09:39:51;;;;;;;36.03;18.05;;;4.60;99.90;;;;;;5019920;28;20050;-75
2022/01/07 09:42:17;;;;;;;40.47;17.90;;;4.60;99.90;;;;;;5017780;28;20045;-78
2022/01/07 09:44:44;;;;;;;30.20;16.35;;;4.60;99.90;;;;;;5010051;28;20118;-74
2022/01/07 09:47:12;;;;;;;33.92;17.50;;;4.60;99.90;;;;;;5019520;28;20065;-82
2022/01/07 09:49:38;;;;;;;32.85;18.35;;;4.70;99.90;;;;;;5017691;28;20076;-76
2022/01/07 09:52:05;;;;;;;27.65;16.52;;;4.70;99.90;;;;;;5018456;28;20053;-76
2022/01/07 09:54:35;;;;;;;32.22;16.90;;;4.80;99.90;;;;;;5012438;28;20037;-76
2022/01/07 09:57:02;;;;;;;29.50;16.52;;;4.80;99.90;;;;;;5017152;28;20046;-76
2022/01/07 09:59:28;;;;;;;27.45;17.50;;;4.90;99.90;;;;;;5018555;28;20140;-76
2022/01/07 10:02:00;;;;;;;33.83;18.73;;;4.90;99.90;;;;;;5017189;28;20107;-76
2022/01/07 10:04:33;;;;;;;30.13;16.50;;;4.90;99.90;;;;;;5008114;28;20159;-76
2022/01/07 10:07:13;;;;;;;26.83;14.35;;;4.80;99.90;;;;;;5019100;28;20057;-76
2022/01/07 10:09:58;;;;;;;27.48;14.55;;;4.80;99.90;;;;;;5017637;28;20065;-76
2022/01/07 10:12:25;;;;;;;26.30;14.27;;;4.70;99.90;;;;;;5029803;28;20049;-76
2022/01/07 10:15:11;;;;;;;22.23;13.68;;;4.70;99.90;;;;;;5009983;28;20045;-76
2022/01/07 10:17:37;;;;;;;24.55;14.10;;;4.70;99.90;;;;;;5032706;28;20053;-76
2022/01/07 10:20:03;;;;;;;18.08;9.32;;;4.70;99.90;;;;;;5017687;28;20037;-76
2022/01/07 10:22:29;;;;;;;13.75;8.18;;;4.70;99.90;;;;;;5035059;28;20136;-76
2022/01/07 10:25:03;;;;;;;12.82;7.50;;;4.70;99.90;;;;;;5010793;28;20644;-76
2022/01/07 10:27:38;;;;;;;16.20;9.52;;;4.50;99.90;;;;;;5016845;28;20472;-76
2022/01/07 10:30:15;;;;;;;17.25;8.95;;;4.60;99.90;;;;;;5017259;28;20041;-76
2022/01/07 10:32:42;;;;;;;15.52;9.38;;;4.60;99.90;;;;;;5018979;28;20053;-76
2022/01/07 10:35:21;;;;;;;19.13;8.30;;;4.70;99.90;;;;;;5008305;28;20047;-76
2022/01/07 10:38:02;;;;;;;15.52;6.07;;;4.70;99.90;;;;;;5016063;28;20738;-76
2022/01/07 10:40:37;;;;;;;8.40;4.22;;;4.80;99.90;;;;;;5017900;28;20805;-76
2022/01/07 10:43:16;;;;;;;8.13;3.47;;;4.80;99.90;;;;;;5017069;28;20049;-76
2022/01/07 10:45:45;;;;;;;9.65;3.58;;;4.90;99.90;;;;;;5010761;28;20037;-76
2022/01/07 10:48:12;;;;;;;7.88;3.10;;;4.90;99.90;;;;;;5016326;28;20038;-76
2022/01/07 10:50:40;;;;;;;5.93;2.03;;;4.90;99.90;;;;;;5017351;28;20046;-76
2022/01/07 10:53:27;;;;;;;5.80;1.73;;;4.90;99.90;;;;;;5015796;28;20075;-75
2022/01/07 10:56:02;;;;;;;4.88;1.58;;;5.40;99.90;;;;;;5013836;28;20041;-76
2022/01/07 10:58:29;;;;;;;6.38;2.10;;;5.00;99.90;;;;;;5034520;28;20448;-76
2022/01/07 11:00:54;;;;;;;6.38;2.88;;;4.90;99.90;;;;;;5033574;28;20053;-76
2022/01/07 11:03:20;;;;;;;8.13;3.42;;;4.90;99.90;;;;;;5013414;28;20053;-76
2022/01/07 11:05:46;;;;;;;10.73;4.55;;;4.90;99.90;;;;;;5014879;28;20127;-76
2022/01/07 11:08:15;;;;;;;7.95;4.20;;;4.90;99.90;;;;;;5014775;28;20053;-76
2022/01/07 11:10:42;;;;;;;8.93;3.80;;;4.90;99.90;;;;;;5015797;28;20115;-76
2022/01/07 11:13:09;;;;;;;11.90;3.95;;;4.90;99.90;;;;;;5011696;28;20485;-75
2022/01/07 11:15:37;;;;;;;10.43;3.97;;;4.90;99.90;;;;;;5008819;28;20100;-76
2022/01/07 11:18:02;;;;;;;9.63;4.10;;;4.80;99.90;;;;;;5015825;28;20061;-76
2022/01/07 11:20:28;;;;;;;9.65;4.47;;;4.80;99.90;;;;;;5019644;28;20044;-75
2022/01/07 11:22:54;;;;;;;10.60;4.75;;;4.80;99.90;;;;;;5016604;28;20061;-75
2022/01/07 11:25:29;;;;;;;9.95;5.28;;;4.90;99.90;;;;;;5009538;28;20448;-75
2022/01/07 11:27:57;;;;;;;11.02;5.65;;;4.90;99.90;;;;;;5013152;28;20115;-75
2022/01/07 11:30:28;;;;;;;12.05;6.43;;;4.90;99.90;;;;;;5017006;28;20071;-76
2022/01/07 11:32:54;;;;;;;12.35;5.85;;;4.90;99.90;;;;;;5019816;28;20060;-75
2022/01/07 11:35:20;;;;;;;14.00;6.43;;;4.90;99.90;;;;;;5012266;28;20033;-76
2022/01/07 11:37:46;;;;;;;15.30;7.65;;;4.90;99.90;;;;;;5033813;28;20495;-75
2022/01/07 11:40:33;;;;;;;14.23;7.03;;;4.90;99.90;;;;;;5031158;28;20051;-75
2022/01/07 11:43:06;;;;;;;21.05;8.02;;;4.90;99.90;;;;;;5034326;28;20045;-75
2022/01/07 11:45:38;;;;;;;15.20;6.90;;;4.90;99.90;;;;;;5012983;28;20104;-75
2022/01/07 11:48:22;;;;;;;22.63;8.25;;;5.00;99.90;;;;;;5017301;28;20103;-75
2022/01/07 11:51:08;;;;;;;18.07;8.57;;;5.00;99.90;;;;;;5017796;28;21061;-75
2022/01/07 11:53:39;;;;;;;16.30;7.85;;;5.00;99.90;;;;;;5011459;28;20300;-75
2022/01/07 11:56:07;;;;;;;19.92;7.93;;;4.90;99.90;;;;;;5017866;28;20043;-76
2022/01/07 11:58:38;;;;;;;19.02;8.82;;;4.90;99.90;;;;;;5019087;28;20057;-76
2022/01/07 12:01:04;;;;;;;19.90;10.68;;;4.90;99.90;;;;;;5035648;28;20110;-76
2022/01/07 12:03:30;;;;;;;18.60;9.43;;;4.90;99.90;;;;;;5012532;28;20087;-76
2022/01/07 12:05:56;;;;;;;17.50;10.00;;;4.90;99.90;;;;;;5034131;28;20172;-76
2022/01/07 12:08:41;;;;;;;20.88;9.52;;;4.90;99.90;;;;;;5017747;28;20483;-76
2022/01/07 12:11:10;;;;;;;26.13;10.43;;;4.90;99.90;;;;;;5012989;28;20385;-76
2022/01/07 12:13:38;;;;;;;21.70;10.15;;;4.90;99.90;;;;;;5012088;28;20284;-76
2022/01/07 12:16:04;;;;;;;21.65;10.30;;;4.90;99.90;;;;;;5019111;28;20053;-77
2022/01/07 12:18:34;;;;;;;25.80;11.30;;;4.90;99.90;;;;;;5018727;28;20060;-77
2022/01/07 12:21:00;;;;;;;19.77;10.00;;;4.90;99.90;;;;;;5016461;28;20046;-76
2022/01/07 12:23:26;;;;;;;19.48;10.57;;;5.00;99.90;;;;;;5015144;28;20097;-78
2022/01/07 12:25:53;;;;;;;18.75;10.65;;;5.00;99.90;;;;;;5017710;28;20159;-77
2022/01/07 12:28:20;;;;;;;20.33;10.13;;;5.00;99.90;;;;;;5018019;28;20133;-77
2022/01/07 12:30:47;;;;;;;16.17;9.00;;;5.00;99.90;;;;;;5017250;28;20052;-77
2022/01/07 12:33:13;;;;;;;17.17;7.18;;;5.10;99.90;;;;;;5016056;28;20396;-77
2022/01/07 12:35:40;;;;;;;11.32;5.20;;;5.10;99.90;;;;;;5012893;28;20062;-77
2022/01/07 12:38:17;;;;;;;14.48;5.78;;;5.00;99.90;;;;;;5018144;28;20037;-77
2022/01/07 12:40:51;;;;;;;12.20;4.47;;;5.00;99.90;;;;;;5019544;28;20073;-77
2022/01/07 12:43:21;;;;;;;10.43;4.30;;;4.90;99.90;;;;;;5018436;28;20053;-77
2022/01/07 12:46:01;;;;;;;11.10;2.88;;;5.30;99.90;;;;;;5019818;28;20587;-77
2022/01/07 12:48:38;;;;;;;6.10;2.60;;;4.80;99.90;;;;;;5022233;28;20056;-77